sensor_id;sensor_type;location;lat;lon;timestamp;P1;durP1;ratioP1;P2;durP2;ratioP2
29414;SDS011;20303;48.302;11.914;2022-08-01T00:02:00;3.80;;;3.40;;
29414;SDS011;20303;48.302;11.914;2022-08-01T00:12:02;3.92;;;3.10;;
29414;SDS011;20303;48.302;11.914;2022-08-01T00:22:04;4.97;;;3.50;;
29414;SDS011;20303;48.302;11.914;2022-08-01T00:32:05;6.88;;;3.50;;
29414;SDS011;20303;48.302;11.914;2022-08-01T00:42:07;5.68;;;3.20;;
29414;SDS011;20303;48.302;11.914;2022-08-01T00:52:10;4.32;;;2.90;;
29414;SDS011;20303;48.302;11.914;2022-08-01T01:02:11;3.45;;;2.90;;
29414;SDS011;20303;48.302;11.914;2022-08-01T01:22:46;3.50;;;3.20;;
29414;SDS011;20303;48.302;11.914;2022-08-01T01:43:09;3.72;;;3.30;;
29414;SDS011;20303;48.302;11.914;2022-08-01T01:53:12;6.05;;;3.33;;
29414;SDS011;20303;48.302;11.914;2022-08-01T02:03:17;5.28;;;3.30;;
29414;SDS011;20303;48.302;11.914;2022-08-01T02:13:18;6.40;;;3.30;;
29414;SDS011;20303;48.302;11.914;2022-08-01T02:23:19;3.80;;;3.50;;
29414;SDS011;20303;48.302;11.914;2022-08-01T02:33:22;7.55;;;3.50;;
29414;SDS011;20303;48.302;11.914;2022-08-01T02:43:26;4.07;;;3.30;;
29414;SDS011;20303;48.302;11.914;2022-08-01T02:53:31;4.05;;;3.40;;
29414;SDS011;20303;48.302;11.914;2022-08-01T03:03:36;3.55;;;3.22;;
29414;SDS011;20303;48.302;11.914;2022-08-01T03:13:38;4.07;;;3.17;;
29414;SDS011;20303;48.302;11.914;2022-08-01T03:23:40;3.30;;;3.00;;
29414;SDS011;20303;48.302;11.914;2022-08-01T03:33:41;3.70;;;3.25;;
29414;SDS011;20303;48.302;11.914;2022-08-01T03:43:45;5.45;;;3.40;;
29414;SDS011;20303;48.302;11.914;2022-08-01T03:53:57;3.60;;;3.30;;
29414;SDS011;20303;48.302;11.914;2022-08-01T04:04:00;4.70;;;3.40;;
29414;SDS011;20303;48.302;11.914;2022-08-01T04:14:05;4.82;;;3.30;;
29414;SDS011;20303;48.302;11.914;2022-08-01T04:24:10;4.55;;;3.40;;
29414;SDS011;20303;48.302;11.914;2022-08-01T04:34:15;4.18;;;3.10;;
29414;SDS011;20303;48.302;11.914;2022-08-01T04:44:19;3.88;;;3.20;;
29414;SDS011;20303;48.302;11.914;2022-08-01T04:54:20;4.97;;;3.33;;
29414;SDS011;20303;48.302;11.914;2022-08-01T05:04:21;4.05;;;3.25;;
29414;SDS011;20303;48.302;11.914;2022-08-01T05:14:23;4.20;;;3.03;;
29414;SDS011;20303;48.302;11.914;2022-08-01T05:24:28;4.45;;;3.10;;
29414;SDS011;20303;48.302;11.914;2022-08-01T05:34:29;3.90;;;3.35;;
29414;SDS011;20303;48.302;11.914;2022-08-01T05:44:30;3.97;;;3.20;;
29414;SDS011;20303;48.302;11.914;2022-08-01T05:54:31;4.70;;;3.30;;
29414;SDS011;20303;48.302;11.914;2022-08-01T06:04:32;5.22;;;3.50;;
29414;SDS011;20303;48.302;11.914;2022-08-01T06:14:33;4.45;;;3.13;;
29414;SDS011;20303;48.302;11.914;2022-08-01T06:24:34;4.05;;;3.38;;
29414;SDS011;20303;48.302;11.914;2022-08-01T06:34:35;6.20;;;3.55;;
29414;SDS011;20303;48.302;11.914;2022-08-01T06:44:37;6.82;;;3.63;;
29414;SDS011;20303;48.302;11.914;2022-08-01T06:54:38;6.07;;;3.40;;
29414;SDS011;20303;48.302;11.914;2022-08-01T07:04:39;4.05;;;3.30;;
29414;SDS011;20303;48.302;11.914;2022-08-01T07:14:40;4.65;;;3.20;;
29414;SDS011;20303;48.302;11.914;2022-08-01T07:24:41;4.13;;;3.30;;
29414;SDS011;20303;48.302;11.914;2022-08-01T07:34:42;5.22;;;3.20;;
29414;SDS011;20303;48.302;11.914;2022-08-01T07:44:43;5.07;;;3.85;;
29414;SDS011;20303;48.302;11.914;2022-08-01T07:54:44;6.00;;;3.35;;
29414;SDS011;20303;48.302;11.914;2022-08-01T08:04:46;6.18;;;3.50;;
29414;SDS011;20303;48.302;11.914;2022-08-01T08:14:49;4.55;;;3.65;;
29414;SDS011;20303;48.302;11.914;2022-08-01T08:24:50;6.38;;;3.65;;
29414;SDS011;20303;48.302;11.914;2022-08-01T08:34:51;5.35;;;3.53;;
29414;SDS011;20303;48.302;11.914;2022-08-01T08:44:53;4.40;;;3.65;;
29414;SDS011;20303;48.302;11.914;2022-08-01T08:54:55;5.40;;;4.10;;
29414;SDS011;20303;48.302;11.914;2022-08-01T09:04:56;4.43;;;3.42;;
29414;SDS011;20303;48.302;11.914;2022-08-01T09:14:59;3.50;;;3.20;;
29414;SDS011;20303;48.302;11.914;2022-08-01T09:45:33;3.40;;;3.10;;
29414;SDS011;20303;48.302;11.914;2022-08-01T09:55:34;3.53;;;3.22;;
29414;SDS011;20303;48.302;11.914;2022-08-01T10:05:36;5.13;;;3.30;;
29414;SDS011;20303;48.302;11.914;2022-08-01T10:15:37;3.50;;;3.13;;
29414;SDS011;20303;48.302;11.914;2022-08-01T10:25:40;4.22;;;3.50;;
29414;SDS011;20303;48.302;11.914;2022-08-01T10:35:42;3.70;;;3.30;;
29414;SDS011;20303;48.302;11.914;2022-08-01T10:45:46;4.82;;;3.88;;
29414;SDS011;20303;48.302;11.914;2022-08-01T10:55:49;13.35;;;7.20;;
29414;SDS011;20303;48.302;11.914;2022-08-01T11:05:51;6.47;;;4.22;;
29414;SDS011;20303;48.302;11.914;2022-08-01T11:15:53;5.00;;;3.85;;
29414;SDS011;20303;48.302;11.914;2022-08-01T11:26:31;4.45;;;3.50;;
29414;SDS011;20303;48.302;11.914;2022-08-01T11:36:32;3.40;;;3.10;;
29414;SDS011;20303;48.302;11.914;2022-08-01T11:46:46;2.78;;;2.25;;
29414;SDS011;20303;48.302;11.914;2022-08-01T11:56:59;3.28;;;1.92;;
29414;SDS011;20303;48.302;11.914;2022-08-01T12:07:13;2.50;;;1.90;;
29414;SDS011;20303;48.302;11.914;2022-08-01T12:17:14;3.20;;;1.90;;
29414;SDS011;20303;48.302;11.914;2022-08-01T12:27:26;4.32;;;1.90;;
29414;SDS011;20303;48.302;11.914;2022-08-01T12:37:28;2.78;;;1.83;;
29414;SDS011;20303;48.302;11.914;2022-08-01T12:47:29;2.10;;;1.70;;
29414;SDS011;20303;48.302;11.914;2022-08-01T12:57:30;2.53;;;1.60;;
29414;SDS011;20303;48.302;11.914;2022-08-01T13:07:36;3.25;;;1.58;;
29414;SDS011;20303;48.302;11.914;2022-08-01T13:17:47;1.80;;;1.50;;
29414;SDS011;20303;48.302;11.914;2022-08-01T13:27:49;3.65;;;1.65;;
29414;SDS011;20303;48.302;11.914;2022-08-01T13:38:10;1.58;;;1.48;;
29414;SDS011;20303;48.302;11.914;2022-08-01T13:48:11;4.22;;;1.58;;
29414;SDS011;20303;48.302;11.914;2022-08-01T13:58:12;3.17;;;1.75;;
29414;SDS011;20303;48.302;11.914;2022-08-01T14:08:13;2.03;;;1.73;;
29414;SDS011;20303;48.302;11.914;2022-08-01T14:18:15;2.13;;;1.70;;
29414;SDS011;20303;48.302;11.914;2022-08-01T14:28:16;2.75;;;1.80;;
29414;SDS011;20303;48.302;11.914;2022-08-01T14:38:18;3.80;;;1.80;;
29414;SDS011;20303;48.302;11.914;2022-08-01T14:48:19;4.45;;;1.95;;
29414;SDS011;20303;48.302;11.914;2022-08-01T14:58:20;5.00;;;2.00;;
29414;SDS011;20303;48.302;11.914;2022-08-01T15:08:22;3.88;;;1.73;;
29414;SDS011;20303;48.302;11.914;2022-08-01T15:18:23;2.85;;;1.80;;
29414;SDS011;20303;48.302;11.914;2022-08-01T15:28:24;2.25;;;1.60;;
29414;SDS011;20303;48.302;11.914;2022-08-01T15:38:25;3.97;;;2.38;;
29414;SDS011;20303;48.302;11.914;2022-08-01T15:48:27;3.03;;;2.30;;
29414;SDS011;20303;48.302;11.914;2022-08-01T15:58:28;4.63;;;2.30;;
29414;SDS011;20303;48.302;11.914;2022-08-01T16:08:29;4.88;;;2.00;;
29414;SDS011;20303;48.302;11.914;2022-08-01T16:18:30;4.57;;;2.10;;
29414;SDS011;20303;48.302;11.914;2022-08-01T16:28:31;10.07;;;4.20;;
29414;SDS011;20303;48.302;11.914;2022-08-01T16:38:32;10.38;;;4.10;;
29414;SDS011;20303;48.302;11.914;2022-08-01T16:48:33;10.27;;;3.90;;
29414;SDS011;20303;48.302;11.914;2022-08-01T16:58:35;7.63;;;3.40;;
29414;SDS011;20303;48.302;11.914;2022-08-01T17:08:36;7.60;;;3.33;;
29414;SDS011;20303;48.302;11.914;2022-08-01T17:18:37;6.32;;;2.60;;
29414;SDS011;20303;48.302;11.914;2022-08-01T17:28:38;5.00;;;2.28;;
29414;SDS011;20303;48.302;11.914;2022-08-01T17:38:39;2.90;;;2.08;;
29414;SDS011;20303;48.302;11.914;2022-08-01T17:48:40;2.80;;;2.15;;
29414;SDS011;20303;48.302;11.914;2022-08-01T17:58:43;3.17;;;2.53;;
29414;SDS011;20303;48.302;11.914;2022-08-01T18:08:44;15.13;;;3.90;;
29414;SDS011;20303;48.302;11.914;2022-08-01T18:18:46;8.00;;;2.67;;
29414;SDS011;20303;48.302;11.914;2022-08-01T18:28:47;4.80;;;3.00;;
29414;SDS011;20303;48.302;11.914;2022-08-01T18:38:48;9.27;;;2.50;;
29414;SDS011;20303;48.302;11.914;2022-08-01T18:48:49;10.32;;;8.35;;
29414;SDS011;20303;48.302;11.914;2022-08-01T18:58:51;9.95;;;6.63;;
29414;SDS011;20303;48.302;11.914;2022-08-01T19:08:53;4.90;;;3.17;;
29414;SDS011;20303;48.302;11.914;2022-08-01T19:18:54;6.00;;;3.13;;
29414;SDS011;20303;48.302;11.914;2022-08-01T19:29:17;5.32;;;3.10;;
29414;SDS011;20303;48.302;11.914;2022-08-01T19:39:19;5.57;;;2.63;;
29414;SDS011;20303;48.302;11.914;2022-08-01T19:49:22;4.40;;;2.20;;
29414;SDS011;20303;48.302;11.914;2022-08-01T19:59:23;3.42;;;2.20;;
29414;SDS011;20303;48.302;11.914;2022-08-01T20:09:25;3.75;;;2.13;;
29414;SDS011;20303;48.302;11.914;2022-08-01T20:19:27;5.25;;;2.15;;
29414;SDS011;20303;48.302;11.914;2022-08-01T20:29:29;2.78;;;1.90;;
29414;SDS011;20303;48.302;11.914;2022-08-01T20:39:31;3.70;;;2.20;;
29414;SDS011;20303;48.302;11.914;2022-08-01T20:49:33;6.32;;;2.55;;
29414;SDS011;20303;48.302;11.914;2022-08-01T20:59:36;5.93;;;2.53;;
29414;SDS011;20303;48.302;11.914;2022-08-01T21:09:44;5.43;;;2.20;;
29414;SDS011;20303;48.302;11.914;2022-08-01T21:19:49;4.15;;;2.40;;
29414;SDS011;20303;48.302;11.914;2022-08-01T21:29:53;3.22;;;2.13;;
29414;SDS011;20303;48.302;11.914;2022-08-01T21:39:55;4.68;;;2.00;;
29414;SDS011;20303;48.302;11.914;2022-08-01T21:50:01;3.05;;;1.90;;
29414;SDS011;20303;48.302;11.914;2022-08-01T22:10:12;3.95;;;2.05;;
29414;SDS011;20303;48.302;11.914;2022-08-01T22:20:14;7.13;;;2.33;;
29414;SDS011;20303;48.302;11.914;2022-08-01T22:30:19;3.70;;;2.20;;
29414;SDS011;20303;48.302;11.914;2022-08-01T22:40:20;3.78;;;2.08;;
29414;SDS011;20303;48.302;11.914;2022-08-01T23:00:50;4.22;;;2.00;;
29414;SDS011;20303;48.302;11.914;2022-08-01T23:10:58;5.40;;;2.03;;
29414;SDS011;20303;48.302;11.914;2022-08-01T23:21:00;3.38;;;1.90;;
29414;SDS011;20303;48.302;11.914;2022-08-01T23:31:02;2.55;;;1.58;;
29414;SDS011;20303;48.302;11.914;2022-08-01T23:41:05;3.72;;;1.70;;
29414;SDS011;20303;48.302;11.914;2022-08-01T23:51:13;2.58;;;1.40;;
